Time;durP1;ratioP1;P1;durP2;ratioP2;P2;SDS_P1;SDS_P2;PMS_P1;PMS_P2;Temp;Humidity;BMP_temperature;BMP_pressure;BME280_temperature;BME280_humidity;BME280_pressure;Samples;Min_cycle;Max_cycle;Signal;HPM_P1;HPM_P2
2023/01/21 00:01:09;;;;;;;6.65;5.07;;;;;;;19.24;45.02;100628.56;5074641;28;20356;-46
2023/01/21 00:03:36;;;;;;;5.70;4.80;;;;;;;19.25;45.20;100630.25;5074276;28;20471;-47
2023/01/21 00:06:05;;;;;;;6.53;5.13;;;;;;;19.24;45.17;100617.81;5074334;28;20403;-47
2023/01/21 00:08:32;;;;;;;7.43;4.75;;;;;;;19.23;45.15;100617.94;5074662;28;20049;-58
2023/01/21 00:11:08;;;;;;;6.10;5.00;;;;;;;19.23;44.96;100616.09;5060571;28;20040;-58
2023/01/21 00:13:36;;;;;;;5.68;4.68;;;;;;;19.23;44.81;100615.25;5053730;28;20052;-58
2023/01/21 00:16:04;;;;;;;5.13;4.13;;;;;;;19.23;44.86;100616.09;5054492;28;20072;-58
2023/01/21 00:18:33;;;;;;;7.38;4.57;;;;;;;19.22;44.93;100617.09;5054233;28;20049;-58
2023/01/21 00:21:00;;;;;;;7.32;5.13;;;;;;;19.22;44.67;100609.03;5053922;28;20383;-58
2023/01/21 00:23:27;;;;;;;6.22;4.55;;;;;;;19.22;44.97;100611.72;5054379;28;20041;-58
2023/01/21 00:26:03;;;;;;;7.05;4.57;;;;;;;19.22;44.62;100606.34;5053919;28;20045;-58
2023/01/21 00:28:32;;;;;;;4.90;4.40;;;;;;;19.22;44.64;100594.78;5052907;28;20059;-49
2023/01/21 00:31:02;;;;;;;5.90;4.40;;;;;;;19.21;44.63;100599.28;5054393;28;20044;-48
2023/01/21 00:33:30;;;;;;;5.05;4.22;;;;;;;19.21;44.67;100596.63;5053743;28;20055;-50
2023/01/21 00:36:09;;;;;;;6.72;4.22;;;;;;;19.20;44.61;100592.25;5053740;28;20044;-47
2023/01/21 00:38:37;;;;;;;8.90;3.97;;;;;;;19.20;44.54;100588.69;5054331;28;20501;-58
2023/01/21 00:41:11;;;;;;;5.43;3.92;;;;;;;19.19;44.56;100584.31;5053527;28;20045;-58
2023/01/21 00:43:41;;;;;;;5.60;4.07;;;;;;;19.18;44.59;100586.13;5053461;28;20518;-58
2023/01/21 00:46:10;;;;;;;5.13;4.05;;;;;;;19.19;44.48;100571.72;5053602;28;20045;-58
2023/01/21 00:48:37;;;;;;;5.78;4.32;;;;;;;19.18;44.48;100580.78;5066702;28;20052;-58
2023/01/21 00:51:05;;;;;;;5.70;4.32;;;;;;;19.18;44.45;100575.41;5073821;28;20059;-58
2023/01/21 00:53:34;;;;;;;5.65;4.07;;;;;;;19.16;44.60;100572.03;5073498;28;20040;-58
2023/01/21 00:56:05;;;;;;;6.18;4.35;;;;;;;19.17;44.35;100572.88;5073212;28;20161;-58
2023/01/21 00:58:33;;;;;;;4.78;3.97;;;;;;;19.15;44.48;100564.94;5073681;28;20044;-47
2023/01/21 01:01:02;;;;;;;5.95;3.92;;;;;;;19.16;44.47;100563.97;5073283;28;20044;-48
2023/01/21 01:03:30;;;;;;;5.57;4.72;;;;;;;19.15;44.42;100564.94;5073358;28;20049;-46
2023/01/21 01:06:05;;;;;;;4.43;3.97;;;;;;;19.15;44.45;100564.09;5073068;28;20044;-47
2023/01/21 01:08:33;;;;;;;6.10;4.35;;;;;;;19.14;44.58;100557.88;5073494;28;20414;-47
2023/01/21 01:11:00;;;;;;;4.72;3.78;;;;;;;19.14;44.70;100562.41;5066059;28;20045;-50
2023/01/21 01:13:28;;;;;;;7.30;4.60;;;;;;;19.13;44.52;100558.88;5052380;28;20045;-47
2023/01/21 01:15:57;;;;;;;5.28;4.38;;;;;;;19.13;44.62;100561.56;5053037;28;20049;-47
2023/01/21 01:18:26;;;;;;;5.40;4.13;;;;;;;19.12;44.35;100559.88;5053785;28;20045;-48
2023/01/21 01:20:53;;;;;;;5.30;4.35;;;;;;;19.12;44.48;100567.91;5053019;28;20044;-48
2023/01/21 01:23:21;;;;;;;4.55;3.33;;;;;;;19.12;44.65;100562.56;5052891;28;20507;-48
2023/01/21 01:25:59;;;;;;;5.75;4.28;;;;;;;19.11;44.50;100560.84;5053272;28;20044;-48
2023/01/21 01:28:27;;;;;;;4.80;3.38;;;;;;;19.11;44.63;100558.16;5053246;28;20482;-58
2023/01/21 01:30:55;;;;;;;4.38;3.70;;;;;;;19.11;44.49;100557.31;5053223;28;20048;-58
2023/01/21 01:33:24;;;;;;;4.65;4.07;;;;;;;19.10;44.42;100566.34;5052891;28;20053;-58
2023/01/21 01:35:51;;;;;;;4.88;3.97;;;;;;;19.12;44.47;100559.00;5052994;28;20467;-58
2023/01/21 01:38:20;;;;;;;4.93;3.72;;;;;;;19.11;44.49;100558.16;5053120;28;20048;-57
2023/01/21 01:40:49;;;;;;;4.30;3.47;;;;;;;19.11;44.43;100558.16;5053116;28;20118;-58
2023/01/21 01:43:18;;;;;;;5.05;3.78;;;;;;;19.10;44.45;100556.47;5052505;28;20056;-58
2023/01/21 01:45:47;;;;;;;4.75;3.88;;;;;;;19.10;44.47;100551.09;5052657;28;20434;-58
2023/01/21 01:48:27;;;;;;;5.05;3.60;;;;;;;19.10;44.58;100544.88;5063705;28;20055;-57
2023/01/21 01:50:57;;;;;;;4.15;3.30;;;;;;;19.09;44.50;100546.72;5073095;28;20044;-58
2023/01/21 01:53:26;;;;;;;4.78;3.88;;;;;;;19.10;44.58;100544.88;5072780;28;20048;-58
2023/01/21 01:55:54;;;;;;;3.95;3.20;;;;;;;19.09;44.46;100546.72;5072595;28;20045;-58
2023/01/21 01:58:22;;;;;;;4.75;3.47;;;;;;;19.09;44.54;100543.19;5072826;28;20059;-57
2023/01/21 02:00:49;;;;;;;5.45;4.00;;;;;;;19.09;44.60;100543.19;5073194;28;20398;-58
2023/01/21 02:06:03;;;;;;;5.43;3.88;;;;;;;19.07;44.55;100529.91;5076556;28;20475;-58
2023/01/21 02:08:33;;;;;;;5.07;3.60;;;;;;;19.08;44.45;100528.94;5077096;28;20049;-57
2023/01/21 02:11:01;;;;;;;5.00;3.45;;;;;;;19.06;44.55;100524.69;5076495;28;20044;-58
2023/01/21 02:13:32;;;;;;;6.10;3.50;;;;;;;19.06;44.52;100519.31;5056224;28;20768;-58
2023/01/21 02:16:09;;;;;;;4.57;3.53;;;;;;;19.07;44.57;100529.06;5056789;28;20053;-58
2023/01/21 02:18:39;;;;;;;5.20;3.83;;;;;;;19.05;44.47;100510.41;5056911;28;20045;-57
2023/01/21 02:21:18;;;;;;;4.45;3.35;;;;;;;19.05;44.52;100509.56;5056257;28;20045;-58
2023/01/21 02:23:46;;;;;;;5.10;3.40;;;;;;;19.06;44.68;100511.25;5056686;28;20049;-58
2023/01/21 02:26:29;;;;;;;4.40;3.22;;;;;;;19.03;44.53;100510.53;5056176;28;20045;-58
2023/01/21 02:29:13;;;;;;;4.72;3.42;;;;;;;19.03;44.52;100505.16;5056150;28;20041;-58
2023/01/21 02:31:53;;;;;;;;;;;;;;;19.03;44.67;100501.66;5056472;28;20052;-58
2023/01/21 02:34:31;;;;;;;4.32;3.17;;;;;;;19.02;44.67;100491.91;5056198;28;19928;-58
2023/01/21 02:37:08;;;;;;;5.15;3.13;;;;;;;19.01;44.66;100485.69;5056255;28;20044;-58
2023/01/21 02:39:47;;;;;;;3.97;3.05;;;;;;;19.02;44.65;100481.19;5055747;28;20056;-58
2023/01/21 02:42:28;;;;;;;4.18;3.00;;;;;;;19.01;44.56;100482.16;5055942;28;20395;-58
2023/01/21 02:45:23;;;;;;;4.47;3.22;;;;;;;19.00;44.67;100475.97;5055136;28;20049;-58
2023/01/21 02:48:04;;;;;;;4.68;3.00;;;;;;;19.00;44.60;100475.97;5063548;28;20368;-48
2023/01/21 02:50:41;;;;;;;4.25;2.45;;;;;;;19.00;44.50;100470.59;5075940;28;20055;-58
2023/01/21 02:53:22;;;;;;;3.70;2.80;;;;;;;18.99;44.58;100466.19;5058771;28;20056;-58
2023/01/21 02:55:49;;;;;;;3.92;3.17;;;;;;;19.00;44.57;100467.06;5075840;28;20053;-48
2023/01/21 02:58:21;;;;;;;5.28;2.90;;;;;;;19.00;44.61;100461.69;5076234;28;20552;-48
2023/01/21 03:01:16;;;;;;;4.00;3.30;;;;;;;19.00;44.54;100461.69;5076014;28;20052;-48
2023/01/21 03:03:52;;;;;;;4.03;3.22;;;;;;;18.99;44.56;100451.94;5075732;28;20063;-48
2023/01/21 03:06:29;;;;;;;3.72;2.88;;;;;;;18.99;44.37;100449.25;5075660;28;20103;-48
2023/01/21 03:09:16;;;;;;;4.07;2.97;;;;;;;18.99;44.52;100451.94;5075613;28;20066;-59
2023/01/21 03:11:54;;;;;;;4.43;2.88;;;;;;;18.98;44.47;100445.72;5075329;28;20043;-59
2023/01/21 03:17:47;;;;;;;8.88;3.42;;;;;;;18.97;44.65;100436.00;5055910;28;20049;-59
2023/01/21 03:20:18;;;;;;;5.13;3.10;;;;;;;18.97;44.54;100435.16;5055522;28;20045;-49
2023/01/21 03:22:48;;;;;;;3.65;2.60;;;;;;;18.97;44.50;100430.63;5055262;28;20037;-49
2023/01/21 03:25:16;;;;;;;4.47;3.33;;;;;;;18.96;44.67;100430.78;5055305;28;20048;-48
2023/01/21 03:27:46;;;;;;;4.15;2.85;;;;;;;18.97;44.69;100437.81;5054939;28;20044;-50
2023/01/21 03:30:17;;;;;;;4.65;2.85;;;;;;;18.97;44.60;100424.41;5055454;28;20048;-52
2023/01/21 03:32:50;;;;;;;4.65;3.38;;;;;;;18.97;44.77;100419.06;5055502;28;20108;-49
2023/01/21 03:35:28;;;;;;;4.57;3.05;;;;;;;18.96;44.83;100426.25;5054935;28;20049;-51
2023/01/21 03:38:30;;;;;;;4.68;3.30;;;;;;;18.96;44.68;100430.78;5053981;28;20045;-48
2023/01/21 03:41:21;;;;;;;4.03;2.83;;;;;;;18.96;44.73;100422.72;5055010;28;20063;-59
2023/01/21 03:43:50;;;;;;;4.28;2.80;;;;;;;18.95;44.72;100416.50;5054635;28;20048;-58
2023/01/21 03:46:24;;;;;;;5.25;3.08;;;;;;;18.95;44.78;100423.69;5054729;28;20049;-57
2023/01/21 03:49:01;;;;;;;4.25;2.75;;;;;;;18.95;44.76;100423.69;5070730;28;20052;-57
2023/01/21 03:51:35;;;;;;;4.38;2.88;;;;;;;18.95;44.71;100429.06;5075083;28;20360;-57
2023/01/21 03:54:02;;;;;;;3.80;3.08;;;;;;;18.94;44.65;100425.53;5074570;28;20049;-57
2023/01/21 03:56:29;;;;;;;4.68;3.25;;;;;;;18.94;44.82;100417.47;5074605;28;20040;-57
2023/01/21 03:58:57;;;;;;;4.35;2.78;;;;;;;18.94;44.67;100416.63;5074986;28;20053;-50
2023/01/21 04:01:24;;;;;;;4.43;3.20;;;;;;;18.94;44.71;100422.00;5074375;28;20044;-45
2023/01/21 04:03:51;;;;;;;4.95;3.13;;;;;;;18.93;44.80;100418.47;5074564;28;20056;-46
2023/01/21 04:06:21;;;;;;;4.30;3.42;;;;;;;18.92;44.60;100424.84;5074305;28;20399;-47
2023/01/21 04:08:49;;;;;;;4.68;3.35;;;;;;;18.92;44.69;100416.78;5074848;28;20051;-57
2023/01/21 04:11:16;;;;;;;5.57;2.90;;;;;;;18.93;44.74;100406.91;5074537;28;20044;-57
2023/01/21 04:13:44;;;;;;;4.18;2.88;;;;;;;18.92;44.78;100407.88;5069656;28;20041;-57
2023/01/21 04:16:11;;;;;;;4.00;2.95;;;;;;;18.92;44.81;100416.78;5053542;28;20045;-57
2023/01/21 04:18:38;;;;;;;5.32;3.03;;;;;;;18.92;44.73;100406.06;5054395;28;20045;-49
2023/01/21 04:21:06;;;;;;;4.00;2.75;;;;;;;18.92;44.91;100405.19;5054176;28;20071;-46
2023/01/21 04:23:33;;;;;;;3.95;2.70;;;;;;;18.90;44.74;100396.44;5053460;28;20056;-48
2023/01/21 04:26:01;;;;;;;5.45;2.72;;;;;;;18.92;44.69;100405.19;5053899;28;20476;-46
2023/01/21 04:28:28;;;;;;;3.60;3.00;;;;;;;18.91;44.73;100400.81;5054010;28;20041;-57
2023/01/21 04:30:55;;;;;;;4.50;3.00;;;;;;;18.90;44.73;100404.50;5054065;28;20052;-57
2023/01/21 04:33:23;;;;;;;4.28;2.53;;;;;;;18.90;44.72;100404.50;5053809;28;20498;-57
2023/01/21 04:35:50;;;;;;;3.88;2.90;;;;;;;18.90;44.82;100408.03;5054137;28;20049;-57
2023/01/21 04:38:17;;;;;;;4.10;2.95;;;;;;;18.90;44.72;100408.03;5053813;28;20369;-56
2023/01/21 04:40:44;;;;;;;4.10;2.78;;;;;;;18.91;44.93;100404.34;5053565;28;20056;-57
2023/01/21 04:43:12;;;;;;;3.67;2.88;;;;;;;18.90;44.83;100404.50;5053820;28;20053;-59
2023/01/21 04:45:39;;;;;;;4.22;2.85;;;;;;;18.90;44.79;100405.34;5053783;28;20063;-58
2023/01/21 04:48:06;;;;;;;4.47;3.00;;;;;;;18.89;44.77;100409.00;5063545;28;20049;-57
2023/01/21 04:50:35;;;;;;;4.00;3.10;;;;;;;18.90;44.71;100405.34;5074065;28;20458;-48
2023/01/21 04:53:03;;;;;;;3.95;2.72;;;;;;;18.89;44.72;100400.13;5073354;28;20261;-47
2023/01/21 04:55:30;;;;;;;4.68;2.90;;;;;;;18.89;44.87;100408.16;5073243;28;20049;-59
2023/01/21 04:57:57;;;;;;;3.95;2.63;;;;;;;18.89;44.78;100413.53;5073193;28;20049;-54
2023/01/21 05:00:25;;;;;;;4.13;2.85;;;;;;;18.88;44.68;100412.69;5073914;28;20048;-58
2023/01/21 05:02:52;;;;;;;4.47;2.90;;;;;;;18.88;44.72;100406.44;5073255;28;20067;-58
2023/01/21 05:05:20;;;;;;;3.70;2.63;;;;;;;18.88;44.80;100411.81;5074009;28;20049;-59
2023/01/21 05:07:51;;;;;;;4.07;2.70;;;;;;;18.87;44.68;100408.28;5073284;28;20505;-53
2023/01/21 05:10:18;;;;;;;3.40;2.95;;;;;;;18.88;44.79;100414.50;5073299;28;20044;-46
2023/01/21 05:12:47;;;;;;;3.50;2.13;;;;;;;18.86;44.79;100406.59;5073243;28;20056;-48
2023/01/21 05:15:14;;;;;;;3.80;2.75;;;;;;;18.88;44.82;100398.41;5064483;28;20052;-51
2023/01/21 05:17:42;;;;;;;4.13;2.90;;;;;;;18.86;44.76;100406.59;5052594;28;20041;-57
2023/01/21 05:20:10;;;;;;;4.80;3.28;;;;;;;18.86;44.73;100406.59;5053467;28;20045;-47
2023/01/21 05:22:37;;;;;;;3.20;2.35;;;;;;;18.85;44.74;100412.97;5052851;28;20045;-47
2023/01/21 05:25:05;;;;;;;3.88;3.00;;;;;;;18.86;44.73;100400.41;5052857;28;20407;-46
2023/01/21 05:27:33;;;;;;;3.65;2.70;;;;;;;18.86;44.63;100403.06;5053418;28;20045;-48
2023/01/21 05:30:00;;;;;;;3.78;2.60;;;;;;;18.85;44.51;100399.56;5053261;28;20048;-47
2023/01/21 05:32:28;;;;;;;3.33;2.50;;;;;;;18.85;44.49;100412.13;5053019;28;20044;-50
2023/01/21 05:34:55;;;;;;;3.78;2.50;;;;;;;18.85;44.65;100420.16;5053176;28;20060;-48
2023/01/21 05:37:22;;;;;;;4.57;2.67;;;;;;;18.85;44.66;100406.75;5052842;28;20044;-49
2023/01/21 05:39:49;;;;;;;5.50;2.63;;;;;;;18.85;44.58;100414.81;5052937;28;20053;-59
2023/01/21 05:42:17;;;;;;;3.88;2.83;;;;;;;18.83;44.63;100412.25;5053047;28;20048;-59
2023/01/21 05:44:44;;;;;;;5.70;2.47;;;;;;;18.83;44.80;100414.91;5052390;28;20388;-59
2023/01/21 05:47:11;;;;;;;3.10;2.40;;;;;;;18.83;44.89;100409.56;5055297;28;20045;-59
2023/01/21 05:49:39;;;;;;;3.45;2.55;;;;;;;18.84;44.58;100421.13;5073077;28;20371;-59
2023/01/21 05:52:06;;;;;;;5.90;2.22;;;;;;;18.84;44.60;100422.00;5073113;28;20053;-59
2023/01/21 05:54:33;;;;;;;4.55;2.15;;;;;;;18.84;44.72;100426.50;5072831;28;20048;-60
2023/01/21 05:57:00;;;;;;;2.72;2.00;;;;;;;18.84;44.58;100426.50;5073124;28;20505;-59
2023/01/21 05:59:28;;;;;;;5.05;2.72;;;;;;;18.83;44.68;100424.81;5073076;28;20495;-59
2023/01/21 06:01:55;;;;;;;4.05;2.90;;;;;;;18.83;44.76;100433.69;5072887;28;20501;-58
2023/01/21 06:04:27;;;;;;;3.80;2.45;;;;;;;18.83;44.54;100430.16;5073090;28;20036;-59
2023/01/21 06:06:54;;;;;;;4.35;2.42;;;;;;;18.83;44.62;100430.16;5072688;28;20067;-59
2023/01/21 06:09:22;;;;;;;3.95;2.63;;;;;;;18.83;44.53;100435.53;5072940;28;20611;-50
2023/01/21 06:11:49;;;;;;;4.70;2.83;;;;;;;18.84;44.49;100431.84;5073228;28;20044;-48
2023/01/21 06:14:16;;;;;;;5.53;2.55;;;;;;;18.83;44.59;100433.69;5072685;28;20036;-49
2023/01/21 06:16:43;;;;;;;4.20;2.33;;;;;;;18.83;44.51;100430.16;5064738;28;20037;-49
2023/01/21 06:19:11;;;;;;;4.50;2.67;;;;;;;18.82;44.49;100434.69;5051622;28;20048;-48
2023/01/21 06:21:38;;;;;;;3.80;2.33;;;;;;;18.82;44.38;100440.06;5052707;28;20049;-48
2023/01/21 06:24:05;;;;;;;3.58;2.35;;;;;;;18.82;44.45;100439.22;5052836;28;20045;-52
2023/01/21 06:26:33;;;;;;;4.28;2.05;;;;;;;18.82;44.30;100442.72;5052550;28;20044;-52
2023/01/21 06:29:00;;;;;;;3.72;2.20;;;;;;;18.82;44.32;100448.09;5052834;28;20056;-59
2023/01/21 06:31:27;;;;;;;3.50;2.03;;;;;;;18.81;44.51;100454.47;5052908;28;20037;-59
2023/01/21 06:33:55;;;;;;;3.83;2.45;;;;;;;18.82;44.32;100450.78;5052362;28;20052;-59
2023/01/21 06:36:22;;;;;;;3.33;2.10;;;;;;;18.81;44.32;100448.25;5052958;28;20376;-47
2023/01/21 06:38:49;;;;;;;3.45;2.50;;;;;;;18.80;44.37;100451.88;5052502;28;20048;-49
2023/01/21 06:41:17;;;;;;;3.75;2.08;;;;;;;18.80;44.26;100452.75;5052466;28;20761;-50
2023/01/21 06:43:44;;;;;;;3.50;2.28;;;;;;;18.80;44.40;100465.31;5052732;28;20049;-48
2023/01/21 06:46:11;;;;;;;4.07;2.63;;;;;;;18.79;44.48;100459.09;5052327;28;20057;-49
2023/01/21 06:48:39;;;;;;;3.95;2.85;;;;;;;18.79;44.17;100456.41;5069516;28;20048;-49
2023/01/21 06:51:06;;;;;;;3.92;2.33;;;;;;;18.78;43.96;100466.28;5076254;28;20482;-51
2023/01/21 06:53:33;;;;;;;4.75;2.47;;;;;;;18.78;44.10;100466.28;5075848;28;20040;-48
2023/01/21 06:56:01;;;;;;;3.75;2.60;;;;;;;18.79;43.96;100461.78;5075803;28;20506;-47
2023/01/21 06:58:28;;;;;;;3.85;2.45;;;;;;;18.78;44.12;100462.75;5076419;28;20045;-58
2023/01/21 07:00:56;;;;;;;3.85;2.03;;;;;;;18.77;44.02;100472.66;5075800;28;20052;-58
2023/01/21 07:03:23;;;;;;;3.53;2.40;;;;;;;18.78;44.05;100473.50;5075557;28;20375;-59
2023/01/21 07:05:50;;;;;;;3.88;2.28;;;;;;;18.77;43.93;100472.66;5076062;28;20052;-58
2023/01/21 07:08:18;;;;;;;3.35;2.10;;;;;;;18.77;44.07;100475.34;5076138;28;20048;-57
2023/01/21 07:10:45;;;;;;;4.47;2.47;;;;;;;18.77;43.88;100478.00;5075313;28;20055;-58
2023/01/21 07:13:14;;;;;;;4.32;2.15;;;;;;;18.77;43.90;100483.38;5076007;28;20045;-57
2023/01/21 07:15:41;;;;;;;5.45;2.47;;;;;;;18.77;43.94;100471.81;5075505;28;20048;-59
2023/01/21 07:18:08;;;;;;;5.00;2.50;;;;;;;18.77;43.94;100483.38;5058117;28;20044;-47
2023/01/21 07:20:37;;;;;;;3.10;2.20;;;;;;;18.76;43.95;100484.38;5055452;28;20041;-46
2023/01/21 07:23:07;;;;;;;3.50;2.20;;;;;;;18.77;43.90;100486.06;5055399;28;20514;-49
2023/01/21 07:25:36;;;;;;;3.25;2.40;;;;;;;18.77;43.96;100487.91;5055332;28;20490;-46
2023/01/21 07:28:03;;;;;;;3.28;2.20;;;;;;;18.77;43.99;100495.94;5055941;28;20045;-58
2023/01/21 07:30:31;;;;;;;3.70;2.35;;;;;;;18.77;43.88;100485.22;5055251;28;20052;-47
2023/01/21 07:33:04;;;;;;;4.40;2.20;;;;;;;18.76;43.94;100480.84;5054931;28;20048;-47
2023/01/21 07:35:31;;;;;;;;;;;;;;;18.75;43.73;100481.81;5055507;28;20049;-48
2023/01/21 07:37:58;;;;;;;3.25;2.13;;;;;;;18.75;43.74;100487.16;5055578;28;19928;-47
2023/01/21 07:40:25;;;;;;;2.90;2.03;;;;;;;18.75;43.90;100485.31;5053751;28;20383;-59
2023/01/21 07:42:54;;;;;;;3.03;2.00;;;;;;;18.76;43.85;100483.53;5054730;28;20739;-57
2023/01/21 07:45:23;;;;;;;3.25;1.95;;;;;;;18.75;43.82;100495.22;5055294;28;20482;-58
2023/01/21 07:47:50;;;;;;;3.70;2.08;;;;;;;18.75;43.75;100505.94;5062205;28;20402;-57
2023/01/21 07:50:17;;;;;;;3.60;2.20;;;;;;;18.74;43.79;100507.78;5074693;28;20048;-59
2023/01/21 07:52:45;;;;;;;3.78;2.45;;;;;;;18.74;43.77;100513.13;5074830;28;20040;-58
2023/01/21 07:55:12;;;;;;;3.08;2.17;;;;;;;18.74;43.92;100509.59;5074624;28;20040;-59
2023/01/21 07:57:39;;;;;;;3.88;2.08;;;;;;;18.73;43.67;100511.44;5073627;28;20060;-58
2023/01/21 08:00:07;;;;;;;4.13;2.70;;;;;;;18.73;43.79;100515.97;5073933;28;20047;-48
2023/01/21 08:02:39;;;;;;;3.70;2.15;;;;;;;18.72;43.72;100511.59;5074855;28;20048;-47
2023/01/21 08:05:07;;;;;;;3.03;2.08;;;;;;;18.71;43.68;100517.91;5074466;28;20421;-48
2023/01/21 08:07:34;;;;;;;4.10;2.13;;;;;;;18.71;43.72;100510.72;5074556;28;20048;-47
2023/01/21 08:10:01;;;;;;;3.63;2.10;;;;;;;18.71;43.54;100516.09;5074903;28;20403;-48
2023/01/21 08:12:29;;;;;;;3.47;1.73;;;;;;;18.69;43.63;100520.72;5074378;28;20479;-49
2023/01/21 08:14:56;;;;;;;3.80;2.42;;;;;;;18.70;43.72;100517.06;5074634;28;20040;-50
2023/01/21 08:17:23;;;;;;;3.88;2.17;;;;;;;18.70;43.66;100527.81;5072855;28;20055;-47
2023/01/21 08:19:50;;;;;;;4.45;2.25;;;;;;;18.69;43.72;100520.72;5052773;28;20045;-58
2023/01/21 08:22:19;;;;;;;3.28;2.13;;;;;;;18.70;43.77;100522.44;5054417;28;20036;-58
2023/01/21 08:24:49;;;;;;;3.45;2.10;;;;;;;18.70;43.80;100527.81;5054093;28;20053;-48
2023/01/21 08:27:16;;;;;;;4.13;2.45;;;;;;;18.70;43.75;100532.31;5054524;28;20048;-47
2023/01/21 08:29:45;;;;;;;3.25;2.03;;;;;;;18.70;43.77;100533.16;5054131;28;20407;-50
2023/01/21 08:32:13;;;;;;;3.17;2.03;;;;;;;18.70;43.77;100533.16;5053974;28;20049;-50
2023/01/21 08:34:41;;;;;;;3.58;2.00;;;;;;;18.71;43.61;100537.53;5053980;28;20371;-48
2023/01/21 08:37:08;;;;;;;4.22;2.45;;;;;;;18.70;43.52;100532.31;5054240;28;20053;-49
2023/01/21 08:39:35;;;;;;;3.25;2.33;;;;;;;18.69;43.64;100542.16;5054325;28;20360;-58
2023/01/21 08:42:03;;;;;;;4.30;2.22;;;;;;;18.70;43.82;100549.25;5053821;28;20055;-58
2023/01/21 08:44:30;;;;;;;3.50;2.20;;;;;;;18.69;43.69;100542.16;5053494;28;20487;-58
2023/01/21 08:46:57;;;;;;;4.18;2.65;;;;;;;18.69;43.58;100546.69;5054189;28;20041;-57
2023/01/21 08:49:24;;;;;;;3.42;1.92;;;;;;;18.69;43.56;100541.31;5073954;28;20044;-58
2023/01/21 08:51:52;;;;;;;3.97;2.30;;;;;;;18.69;43.37;100549.38;5073709;28;20044;-58
2023/01/21 08:54:19;;;;;;;3.10;2.13;;;;;;;18.68;43.46;100551.19;5074010;28;20055;-59
2023/01/21 08:56:46;;;;;;;3.30;1.92;;;;;;;18.69;43.56;100558.25;5073528;28;20047;-58
2023/01/21 08:59:14;;;;;;;3.25;1.80;;;;;;;18.69;43.53;100562.78;5073680;28;20041;-47
2023/01/21 09:01:42;;;;;;;4.78;2.10;;;;;;;18.68;43.42;100558.41;5073890;28;20040;-50
2023/01/21 09:04:09;;;;;;;2.75;1.95;;;;;;;18.69;43.80;100562.78;5073431;28;20045;-48
2023/01/21 09:06:37;;;;;;;4.68;2.00;;;;;;;18.68;43.68;100566.44;5073476;28;20044;-47
2023/01/21 09:09:04;;;;;;;4.00;2.10;;;;;;;18.68;43.55;100567.28;5073550;28;20059;-58
2023/01/21 09:11:32;;;;;;;3.58;1.98;;;;;;;18.68;43.52;100553.03;5053530;28;20052;-58
2023/01/21 09:14:02;;;;;;;3.80;2.10;;;;;;;18.69;43.85;100563.63;5053283;28;20049;-59
2023/01/21 09:16:30;;;;;;;3.95;2.22;;;;;;;18.68;43.96;100561.94;5052268;28;20045;-59
2023/01/21 09:18:59;;;;;;;4.90;2.28;;;;;;;18.69;44.04;100562.78;5052751;28;20078;-52
2023/01/21 09:21:26;;;;;;;5.75;2.08;;;;;;;18.70;43.55;100565.34;5051471;28;20064;-50
2023/01/21 09:23:54;;;;;;;3.22;1.92;;;;;;;18.70;43.45;100568.03;5053049;28;20041;-54
2023/01/21 09:26:22;;;;;;;3.08;1.73;;;;;;;18.70;43.63;100568.03;5053192;28;20045;-52
2023/01/21 09:28:55;;;;;;;5.55;2.03;;;;;;;18.70;43.48;100568.03;5053713;28;20052;-61
2023/01/21 09:31:24;;;;;;;;;;;;;;;18.70;43.85;100570.69;5053559;28;20553;-60
2023/01/21 09:33:58;;;;;;;4.97;2.47;;;;;;;18.71;43.76;100561.66;5053356;28;19928;-61
2023/01/21 09:36:28;;;;;;;6.38;2.47;;;;;;;18.73;44.01;100559.72;5052719;28;20387;-61
2023/01/21 09:38:56;;;;;;;4.53;1.90;;;;;;;18.73;44.27;100564.25;5052913;28;20048;-51
2023/01/21 09:41:32;;;;;;;3.38;2.08;;;;;;;18.73;44.12;100564.25;5053125;28;20052;-50
2023/01/21 09:44:12;;;;;;;3.75;1.80;;;;;;;18.72;44.02;100560.72;5052304;28;20057;-52
2023/01/21 09:46:48;;;;;;;5.50;2.17;;;;;;;18.72;43.99;100567.91;5052958;28;20053;-50
2023/01/21 09:49:22;;;;;;;3.95;2.00;;;;;;;18.71;44.12;100559.00;5072635;28;20494;-60
2023/01/21 09:52:02;;;;;;;4.40;2.08;;;;;;;18.71;43.78;100559.00;5073154;28;20056;-60
2023/01/21 09:54:32;;;;;;;5.13;2.10;;;;;;;18.72;43.90;100558.03;5072983;28;20048;-58
2023/01/21 09:57:18;;;;;;;3.63;1.88;;;;;;;18.74;43.81;100557.88;5068713;28;20057;-58
2023/01/21 10:00:23;;;;;;;3.67;2.38;;;;;;;18.75;43.51;100556.88;5069314;28;20045;-56
2023/01/21 10:02:53;;;;;;;5.45;2.60;;;;;;;18.75;43.57;100555.06;5072633;28;20048;-58
2023/01/21 10:05:23;;;;;;;5.93;3.13;;;;;;;18.73;39.28;100559.72;5073431;28;20052;-59
2023/01/21 10:08:08;;;;;;;5.63;3.00;;;;;;;18.68;37.32;100556.56;5072948;28;20044;-57
2023/01/21 10:10:38;;;;;;;7.40;3.42;;;;;;;18.65;36.63;100559.50;5072485;28;20045;-49
2023/01/21 10:13:35;;;;;;;6.60;3.65;;;;;;;18.57;35.56;100553.97;5072705;28;20056;-52
2023/01/21 10:16:08;;;;;;;6.28;3.70;;;;;;;18.53;35.19;100553.38;5072295;28;20041;-58
2023/01/21 10:18:38;;;;;;;6.88;2.97;;;;;;;18.51;36.04;100552.69;5072878;28;20055;-48
2023/01/21 10:21:15;;;;;;;6.28;2.70;;;;;;;18.50;36.66;100545.59;5058683;28;20061;-51
2023/01/21 10:23:53;;;;;;;5.72;3.15;;;;;;;18.50;35.26;100548.28;5055944;28;20390;-52
2023/01/21 10:26:21;;;;;;;6.07;2.97;;;;;;;18.50;34.50;100542.06;5056139;28;20052;-46
2023/01/21 10:28:50;;;;;;;4.22;2.92;;;;;;;18.50;37.06;100542.06;5056503;28;20056;-55
2023/01/21 10:31:28;;;;;;;6.13;2.78;;;;;;;18.51;37.95;100533.91;5056461;28;20044;-49
2023/01/21 10:33:56;;;;;;;6.57;2.58;;;;;;;18.56;38.10;100546.91;5056567;28;20045;-49
2023/01/21 10:36:41;;;;;;;3.65;2.10;;;;;;;18.58;38.62;100530.69;5056125;28;20049;-50
2023/01/21 10:39:27;;;;;;;4.30;2.33;;;;;;;18.59;39.03;100541.25;5055782;28;20391;-58
2023/01/21 10:42:03;;;;;;;4.07;2.30;;;;;;;18.60;39.50;100534.94;5056066;28;20395;-58
2023/01/21 10:44:33;;;;;;;5.18;2.05;;;;;;;18.62;39.08;100537.47;5071138;28;20064;-57
2023/01/21 10:47:21;;;;;;;6.13;2.20;;;;;;;18.63;39.39;100537.31;5075973;28;20044;-58
2023/01/21 10:50:03;;;;;;;4.28;2.35;;;;;;;18.64;39.33;100531.00;5076051;28;20364;-59
2023/01/21 10:52:39;;;;;;;5.07;2.25;;;;;;;18.64;38.61;100532.84;5076007;28;20057;-59
2023/01/21 10:55:32;;;;;;;3.35;2.00;;;;;;;18.65;38.99;100529.16;5075787;28;20052;-49
2023/01/21 10:58:10;;;;;;;5.93;2.40;;;;;;;18.65;38.97;100535.38;5076568;28;20056;-49
2023/01/21 11:00:42;;;;;;;6.18;2.10;;;;;;;18.66;39.02;100526.34;5075761;28;20052;-56
2023/01/21 11:03:15;;;;;;;3.40;1.88;;;;;;;18.66;39.00;100525.50;5075800;28;20056;-48
2023/01/21 11:05:43;;;;;;;3.88;1.75;;;;;;;18.67;39.27;100516.47;5075867;28;20044;-58
2023/01/21 11:08:20;;;;;;;5.82;2.22;;;;;;;18.67;38.92;100521.81;5075893;28;20052;-58
2023/01/21 11:10:52;;;;;;;3.25;1.88;;;;;;;18.67;39.23;100517.31;5075552;28;20055;-56
2023/01/21 11:13:20;;;;;;;4.00;1.70;;;;;;;18.67;38.71;100511.94;5076085;28;20371;-57
2023/01/21 11:15:55;;;;;;;5.75;1.90;;;;;;;18.67;39.14;100509.25;5075620;28;20383;-54
2023/01/21 11:18:39;;;;;;;3.63;2.38;;;;;;;18.67;39.08;100506.56;5075704;28;20040;-57
2023/01/21 11:21:17;;;;;;;5.72;2.20;;;;;;;18.67;38.77;100514.63;5067680;28;20049;-57
2023/01/21 11:23:56;;;;;;;3.67;2.10;;;;;;;18.69;39.06;100511.81;5072783;28;20471;-57
2023/01/21 11:26:31;;;;;;;4.82;1.88;;;;;;;18.68;38.96;100508.31;5075417;28;20045;-55
2023/01/21 11:29:13;;;;;;;3.10;1.60;;;;;;;18.67;39.07;100503.91;5075268;28;20056;-52
2023/01/21 11:31:43;;;;;;;2.63;1.42;;;;;;;18.68;39.12;100505.63;5075270;28;20059;-53
2023/01/21 11:34:13;;;;;;;3.25;1.70;;;;;;;18.67;38.92;100501.22;5075434;28;20052;-46
2023/01/21 11:36:53;;;;;;;3.65;1.40;;;;;;;18.68;38.56;100499.41;5075056;28;20056;-57
2023/01/21 11:39:29;;;;;;;4.07;1.60;;;;;;;18.68;39.40;100496.72;5075422;28;20056;-58
2023/01/21 11:42:15;;;;;;;5.90;1.77;;;;;;;18.68;39.01;100494.91;5075508;28;20060;-58
2023/01/21 11:44:56;;;;;;;3.13;1.63;;;;;;;18.67;38.35;100495.84;5074580;28;20048;-58
2023/01/21 11:47:38;;;;;;;3.95;1.90;;;;;;;18.66;37.08;100486.13;5058862;28;20041;-59
2023/01/21 11:50:19;;;;;;;5.93;2.30;;;;;;;18.66;37.77;100485.28;5075280;28;20067;-49